Time;durP1;ratioP1;P1;durP2;ratioP2;P2;SDS_P1;SDS_P2;PMS_P1;PMS_P2;Temp;Humidity;BMP_temperature;BMP_pressure;BME280_temperature;BME280_humidity;BME280_pressure;Samples;Min_cycle;Max_cycle;Signal;HPM_P1;HPM_P2
2022/02/12 00:00:44;;;;;;;23.08;17.10;;;;;;;;;;10243393;28;20495;-69
2022/02/12 00:05:42;;;;;;;10.80;8.90;;;;;;;;;;10243928;28;20490;-69
2022/02/12 00:10:42;;;;;;;14.68;9.48;;;;;;;;;;10245573;28;20044;-69
2022/02/12 00:15:40;;;;;;;23.63;15.15;;;;;;;;;;10240058;28;20044;-69
2022/02/12 00:20:39;;;;;;;16.65;9.75;;;;;;;;;;10251927;28;20077;-71
2022/02/12 00:25:37;;;;;;;13.95;9.95;;;;;;;;;;10252286;28;20033;-71
2022/02/12 00:30:37;;;;;;;9.88;8.27;;;;;;;;;;10246017;28;20455;-71
2022/02/12 00:35:36;;;;;;;11.43;7.85;;;;;;;;;;10245511;28;20355;-70
2022/02/12 00:40:34;;;;;;;11.38;7.82;;;;;;;;;;10246368;28;20141;-70
2022/02/12 00:45:34;;;;;;;14.23;8.10;;;;;;;;;;10244213;28;20183;-70
2022/02/12 00:50:34;;;;;;;12.18;7.20;;;;;;;;;;10246075;28;20072;-70
2022/02/12 00:55:33;;;;;;;15.93;8.85;;;;;;;;;;10243353;28;20117;-70
2022/02/12 01:00:34;;;;;;;13.15;8.98;;;;;;;;;;10242796;28;20077;-71
2022/02/12 01:05:34;;;;;;;12.55;8.20;;;;;;;;;;10243154;28;20115;-70
2022/02/12 01:10:33;;;;;;;14.52;8.15;;;;;;;;;;10244396;28;20068;-71
2022/02/12 01:15:33;;;;;;;14.93;9.48;;;;;;;;;;10246177;28;20045;-70
2022/02/12 01:20:31;;;;;;;12.13;8.60;;;;;;;;;;10246899;28;20108;-70
2022/02/12 01:25:31;;;;;;;13.50;9.38;;;;;;;;;;10245065;28;20088;-70
2022/02/12 01:30:34;;;;;;;11.90;8.70;;;;;;;;;;10246795;28;20061;-70
2022/02/12 01:35:32;;;;;;;14.07;8.50;;;;;;;;;;10247707;28;20080;-70
2022/02/12 01:40:32;;;;;;;12.63;8.63;;;;;;;;;;10246641;28;20069;-70
2022/02/12 01:45:31;;;;;;;10.68;7.70;;;;;;;;;;10241792;28;20076;-70
2022/02/12 01:50:29;;;;;;;11.95;7.43;;;;;;;;;;10256131;28;20069;-71
2022/02/12 01:55:28;;;;;;;13.18;8.57;;;;;;;;;;10247043;28;20073;-70
2022/02/12 02:00:27;;;;;;;15.82;8.45;;;;;;;;;;10240190;28;20075;-70
2022/02/12 02:05:27;;;;;;;14.85;9.10;;;;;;;;;;10260123;28;20041;-70
2022/02/12 02:10:25;;;;;;;11.65;9.05;;;;;;;;;;10278654;28;20052;-71
2022/02/12 02:15:24;;;;;;;17.35;10.60;;;;;;;;;;10267914;28;20432;-70
2022/02/12 02:20:25;;;;;;;15.45;9.75;;;;;;;;;;10244707;28;20070;-70
2022/02/12 02:25:26;;;;;;;13.90;9.32;;;;;;;;;;10240996;28;20068;-71
2022/02/12 02:30:28;;;;;;;14.68;9.15;;;;;;;;;;10241193;28;20064;-70
2022/02/12 02:35:28;;;;;;;16.25;10.40;;;;;;;;;;10241063;28;20506;-70
2022/02/12 02:40:29;;;;;;;15.90;10.60;;;;;;;;;;10242017;28;20076;-70
2022/02/12 02:45:29;;;;;;;16.52;10.60;;;;;;;;;;10239932;28;20096;-70
2022/02/12 02:56:07;;;;;;;16.15;10.63;;;;;;;;;;10241050;28;20053;-69
2022/02/12 03:01:07;;;;;;;17.27;9.65;;;;;;;;;;10237653;28;20143;-69
2022/02/12 03:06:05;;;;;;;13.05;8.77;;;;;;;;;;10246641;28;20057;-69
2022/02/12 03:11:05;;;;;;;15.27;9.70;;;;;;;;;;10233555;28;20067;-69
2022/02/12 03:16:04;;;;;;;15.77;9.55;;;;;;;;;;10233949;28;20083;-69
2022/02/12 03:21:02;;;;;;;15.52;9.38;;;;;;;;;;10238684;28;20458;-71
2022/02/12 03:26:01;;;;;;;14.52;9.65;;;;;;;;;;10234338;28;20069;-70
2022/02/12 03:31:00;;;;;;;12.95;8.93;;;;;;;;;;10234048;28;20071;-70
2022/02/12 03:35:59;;;;;;;11.40;9.02;;;;;;;;;;10238403;28;20134;-70
2022/02/12 03:40:58;;;;;;;12.23;9.80;;;;;;;;;;10236414;28;20076;-70
2022/02/12 03:45:57;;;;;;;14.70;9.25;;;;;;;;;;10238416;28;20045;-70
2022/02/12 03:50:57;;;;;;;13.18;10.07;;;;;;;;;;10238899;28;20041;-70
2022/02/12 03:55:56;;;;;;;12.63;9.90;;;;;;;;;;10236708;28;20076;-70
2022/02/12 04:00:54;;;;;;;15.23;10.45;;;;;;;;;;10236419;28;20459;-71
2022/02/12 04:05:52;;;;;;;13.68;10.32;;;;;;;;;;10236060;28;20046;-70
2022/02/12 04:10:53;;;;;;;11.75;9.20;;;;;;;;;;10239311;28;20124;-70
2022/02/12 04:15:52;;;;;;;15.30;10.00;;;;;;;;;;10237831;28;20041;-70
2022/02/12 04:20:52;;;;;;;15.45;10.85;;;;;;;;;;10237319;28;20072;-70
2022/02/12 04:25:50;;;;;;;13.43;10.00;;;;;;;;;;10239083;28;20037;-70
2022/02/12 04:30:50;;;;;;;13.57;9.35;;;;;;;;;;10241161;28;20091;-70
2022/02/12 04:35:50;;;;;;;16.67;11.18;;;;;;;;;;10240407;28;20105;-70
2022/02/12 04:40:48;;;;;;;13.95;11.25;;;;;;;;;;10242791;28;20084;-70
2022/02/12 04:45:46;;;;;;;15.25;10.43;;;;;;;;;;10234984;28;20561;-70
2022/02/12 04:50:46;;;;;;;16.23;10.20;;;;;;;;;;10234603;28;20068;-70
2022/02/12 04:55:44;;;;;;;11.93;9.90;;;;;;;;;;10237932;28;20053;-70
2022/02/12 05:00:43;;;;;;;14.05;10.82;;;;;;;;;;10240512;28;20491;-71
2022/02/12 05:05:41;;;;;;;16.13;10.52;;;;;;;;;;10240576;28;20069;-70
2022/02/12 05:10:41;;;;;;;14.63;10.60;;;;;;;;;;10247371;28;20065;-72
2022/02/12 05:15:39;;;;;;;13.93;9.52;;;;;;;;;;10246306;28;20179;-72
2022/02/12 05:20:37;;;;;;;16.05;10.27;;;;;;;;;;10256933;28;20068;-71
2022/02/12 05:25:36;;;;;;;19.48;11.57;;;;;;;;;;10252139;28;20038;-72
2022/02/12 05:30:36;;;;;;;21.48;13.00;;;;;;;;;;10249169;28;20168;-72
2022/02/12 05:35:34;;;;;;;14.50;11.25;;;;;;;;;;10252056;28;20067;-72
2022/02/12 05:40:32;;;;;;;17.77;11.52;;;;;;;;;;10252846;28;20076;-72
2022/02/12 05:45:31;;;;;;;21.58;13.15;;;;;;;;;;10253349;28;20079;-72
2022/02/12 05:50:31;;;;;;;19.70;12.52;;;;;;;;;;10251076;28;20506;-71
2022/02/12 05:55:29;;;;;;;30.05;16.90;;;;;;;;;;10248916;28;20073;-72
2022/02/12 06:00:27;;;;;;;19.23;11.88;;;;;;;;;;10248920;28;20073;-72
2022/02/12 06:05:26;;;;;;;21.08;13.32;;;;;;;;;;10247274;28;20065;-72
2022/02/12 06:10:27;;;;;;;17.98;12.50;;;;;;;;;;10248612;28;20065;-72
2022/02/12 06:15:25;;;;;;;17.15;12.65;;;;;;;;;;10250459;28;20190;-71
2022/02/12 06:20:24;;;;;;;21.75;13.90;;;;;;;;;;10242369;28;20065;-72
2022/02/12 06:25:22;;;;;;;20.42;13.20;;;;;;;;;;10242013;28;20061;-72
2022/02/12 06:30:22;;;;;;;18.73;13.50;;;;;;;;;;10245286;28;20065;-72
2022/02/12 06:35:21;;;;;;;25.55;16.65;;;;;;;;;;10249495;28;20076;-71
2022/02/12 06:40:19;;;;;;;22.65;15.90;;;;;;;;;;10244829;28;20069;-72
2022/02/12 06:45:17;;;;;;;21.67;12.98;;;;;;;;;;10244414;28;20077;-72
2022/02/12 06:50:17;;;;;;;23.02;15.32;;;;;;;;;;10244648;28;20713;-72
2022/02/12 06:55:15;;;;;;;24.27;16.95;;;;;;;;;;10246317;28;20069;-72
2022/02/12 07:00:14;;;;;;;22.73;14.45;;;;;;;;;;10246702;28;20079;-71
2022/02/12 07:05:13;;;;;;;31.83;18.23;;;;;;;;;;10248186;28;20510;-71
2022/02/12 07:10:12;;;;;;;21.13;15.40;;;;;;;;;;10260924;28;20045;-71
2022/02/12 07:15:11;;;;;;;24.35;16.50;;;;;;;;;;10245258;28;20084;-70
2022/02/12 07:20:10;;;;;;;25.83;14.63;;;;;;;;;;10257508;28;20072;-70
2022/02/12 07:25:09;;;;;;;17.65;13.98;;;;;;;;;;10247489;28;20068;-70
2022/02/12 07:30:10;;;;;;;21.60;15.00;;;;;;;;;;10240075;28;20068;-71
2022/02/12 07:35:09;;;;;;;20.30;15.73;;;;;;;;;;10241457;28;20466;-70
2022/02/12 07:40:08;;;;;;;33.90;22.48;;;;;;;;;;10242901;28;20083;-70
2022/02/12 07:45:07;;;;;;;18.95;15.13;;;;;;;;;;10241973;28;20100;-71
2022/02/12 07:50:08;;;;;;;18.15;15.40;;;;;;;;;;10233618;28;20115;-71
2022/02/12 07:55:07;;;;;;;21.70;17.27;;;;;;;;;;10237907;28;20073;-70
2022/02/12 08:00:09;;;;;;;17.55;13.43;;;;;;;;;;10237780;28;20037;-72
2022/02/12 08:05:11;;;;;;;17.00;13.88;;;;;;;;;;10241163;28;20522;-73
2022/02/12 08:15:26;;;;;;;31.30;23.98;;;;;;;;;;10243231;28;20100;-72
2022/02/12 08:20:26;;;;;;;28.85;20.02;;;;;;;;;;10243260;28;20041;-72
2022/02/12 08:25:24;;;;;;;24.48;15.68;;;;;;;;;;10245887;28;20409;-72
2022/02/12 08:30:23;;;;;;;51.65;27.92;;;;;;;;;;10242152;28;20069;-72
2022/02/12 08:35:22;;;;;;;15.80;12.93;;;;;;;;;;10249230;28;20076;-70
2022/02/12 08:40:22;;;;;;;16.73;14.82;;;;;;;;;;10246582;28;20056;-71
2022/02/12 08:45:21;;;;;;;18.15;14.93;;;;;;;;;;10254394;28;20087;-72
2022/02/12 08:50:19;;;;;;;38.22;20.80;;;;;;;;;;10250420;28;20068;-72
2022/02/12 08:55:18;;;;;;;24.33;18.17;;;;;;;;;;10252538;28;20061;-71
2022/02/12 09:00:18;;;;;;;41.05;33.15;;;;;;;;;;10243645;28;20083;-72
2022/02/12 09:05:36;;;;;;;48.80;34.80;;;;;;;;;;10247553;28;20100;-70
2022/02/12 09:10:34;;;;;;;27.90;20.95;;;;;;;;;;10248406;28;20490;-71
2022/02/12 09:15:34;;;;;;;22.13;18.05;;;;;;;;;;10248183;28;20073;-71
2022/02/12 09:20:32;;;;;;;17.88;15.77;;;;;;;;;;10246648;28;20068;-71
2022/02/12 09:25:31;;;;;;;17.20;15.40;;;;;;;;;;10248170;28;20073;-71
2022/02/12 09:30:29;;;;;;;23.48;17.10;;;;;;;;;;10247807;28;20069;-72
2022/02/12 09:35:29;;;;;;;20.73;14.52;;;;;;;;;;10247349;28;20073;-72
2022/02/12 09:40:33;;;;;;;27.77;21.20;;;;;;;;;;10247731;28;20073;-71
2022/02/12 09:45:50;;;;;;;22.98;15.98;;;;;;;;;;10243823;28;20060;-71
2022/02/12 09:50:50;;;;;;;14.02;12.18;;;;;;;;;;10250737;28;20068;-71
2022/02/12 09:55:49;;;;;;;13.65;11.35;;;;;;;;;;10251798;28;20040;-71
2022/02/12 10:00:47;;;;;;;17.30;12.98;;;;;;;;;;10263248;28;20061;-71
2022/02/12 10:05:51;;;;;;;23.05;16.67;;;;;;;;;;10252265;28;20088;-71
2022/02/12 10:10:50;;;;;;;17.00;13.55;;;;;;;;;;10252517;28;20042;-71
2022/02/12 10:15:50;;;;;;;16.60;14.48;;;;;;;;;;10244833;28;20076;-71
2022/02/12 10:20:51;;;;;;;27.92;19.48;;;;;;;;;;10244318;28;20072;-70
2022/02/12 10:25:50;;;;;;;22.73;18.70;;;;;;;;;;10252728;28;20100;-71
2022/02/12 10:30:48;;;;;;;37.17;23.58;;;;;;;;;;10250433;28;20402;-71
2022/02/12 10:35:58;;;;;;;28.88;21.50;;;;;;;;;;10245483;28;20073;-71
2022/02/12 10:41:06;;;;;;;25.83;23.00;;;;;;;;;;10248005;28;20076;-71
2022/02/12 10:46:05;;;;;;;24.08;19.50;;;;;;;;;;10247334;28;20111;-71
2022/02/12 10:51:06;;;;;;;30.75;22.73;;;;;;;;;;10246471;28;20045;-71
2022/02/12 10:56:05;;;;;;;37.35;26.75;;;;;;;;;;10245298;28;20076;-71
2022/02/12 11:01:04;;;;;;;31.38;20.30;;;;;;;;;;10260581;28;20041;-72
2022/02/12 11:06:03;;;;;;;24.38;17.75;;;;;;;;;;10269552;28;20143;-71
2022/02/12 11:11:02;;;;;;;24.60;18.92;;;;;;;;;;10263852;28;20075;-72
2022/02/12 11:16:01;;;;;;;25.25;16.73;;;;;;;;;;10252491;28;20455;-72
2022/02/12 11:20:59;;;;;;;25.38;16.92;;;;;;;;;;10247702;28;20498;-72
2022/02/12 11:26:20;;;;;;;22.95;18.05;;;;;;;;;;10245565;28;20451;-71
2022/02/12 11:31:23;;;;;;;22.80;16.55;;;;;;;;;;10244498;28;20518;-71
2022/02/12 11:36:21;;;;;;;25.67;18.90;;;;;;;;;;10244166;28;20065;-71
2022/02/12 11:41:24;;;;;;;25.00;16.77;;;;;;;;;;10239969;28;20073;-71
2022/02/12 11:46:41;;;;;;;22.00;15.73;;;;;;;;;;10240349;28;20080;-72
2022/02/12 11:51:41;;;;;;;30.27;19.27;;;;;;;;;;10241347;28;20092;-70
2022/02/12 11:56:53;;;;;;;18.35;13.63;;;;;;;;;;10240511;28;20080;-71
2022/02/12 12:01:53;;;;;;;18.95;16.02;;;;;;;;;;10242488;28;20076;-71
2022/02/12 12:07:10;;;;;;;14.95;11.48;;;;;;;;;;10242090;28;20487;-71
2022/02/12 12:12:21;;;;;;;13.85;10.65;;;;;;;;;;10244798;28;20064;-71
2022/02/12 12:17:24;;;;;;;14.35;12.23;;;;;;;;;;10248454;28;20485;-72
2022/02/12 12:22:22;;;;;;;18.80;12.75;;;;;;;;;;10249055;28;20469;-71
2022/02/12 12:27:22;;;;;;;20.73;15.75;;;;;;;;;;10249305;28;20065;-71
2022/02/12 12:32:22;;;;;;;25.00;17.38;;;;;;;;;;10250076;28;20092;-70
2022/02/12 12:37:20;;;;;;;16.17;12.75;;;;;;;;;;10246378;28;20053;-71
2022/02/12 12:42:19;;;;;;;16.60;13.10;;;;;;;;;;10253727;28;20393;-71
2022/02/12 12:47:19;;;;;;;17.85;14.85;;;;;;;;;;10246616;28;20089;-71
2022/02/12 12:52:23;;;;;;;17.42;14.55;;;;;;;;;;10247762;28;20080;-71
2022/02/12 12:57:26;;;;;;;21.80;15.95;;;;;;;;;;10250347;28;20076;-70
2022/02/12 13:02:27;;;;;;;14.57;10.25;;;;;;;;;;10260526;28;20076;-72
2022/02/12 13:07:26;;;;;;;12.20;9.23;;;;;;;;;;10253918;28;20072;-72
2022/02/12 13:12:28;;;;;;;16.10;12.07;;;;;;;;;;10252148;28;20538;-73
2022/02/12 13:17:28;;;;;;;14.85;10.02;;;;;;;;;;10251932;28;20411;-73
2022/02/12 13:22:28;;;;;;;14.52;9.32;;;;;;;;;;10253217;28;20048;-73
2022/02/12 13:27:27;;;;;;;10.23;7.85;;;;;;;;;;10252147;28;20069;-71
2022/02/12 13:32:36;;;;;;;12.52;9.40;;;;;;;;;;10250072;28;20072;-71
2022/02/12 13:37:37;;;;;;;12.48;8.13;;;;;;;;;;10248665;28;20076;-71
2022/02/12 13:42:36;;;;;;;12.15;10.00;;;;;;;;;;10248867;28;20065;-71
2022/02/12 13:47:34;;;;;;;15.82;11.57;;;;;;;;;;10250794;28;20069;-71
2022/02/12 13:52:33;;;;;;;16.67;10.75;;;;;;;;;;10248864;28;20041;-72
2022/02/12 13:57:33;;;;;;;22.42;15.23;;;;;;;;;;10249750;28;20088;-72
2022/02/12 14:02:31;;;;;;;17.52;13.70;;;;;;;;;;10249775;28;20490;-71
2022/02/12 14:07:31;;;;;;;16.45;10.82;;;;;;;;;;10247932;28;20091;-71
2022/02/12 14:12:29;;;;;;;10.40;7.38;;;;;;;;;;10248857;28;20615;-72
2022/02/12 14:17:29;;;;;;;11.30;7.68;;;;;;;;;;10250354;28;20080;-71
2022/02/12 14:22:27;;;;;;;17.33;11.32;;;;;;;;;;10250976;28;20077;-71
2022/02/12 14:27:25;;;;;;;12.63;11.23;;;;;;;;;;10256663;28;20061;-71
2022/02/12 14:32:24;;;;;;;20.00;13.75;;;;;;;;;;10246102;28;20061;-71
2022/02/12 14:37:24;;;;;;;15.55;9.50;;;;;;;;;;10253690;28;20068;-72
2022/02/12 14:42:22;;;;;;;12.90;10.70;;;;;;;;;;10240466;28;20435;-69
2022/02/12 14:47:20;;;;;;;9.40;7.70;;;;;;;;;;10240936;28;20084;-71
2022/02/12 14:52:18;;;;;;;10.27;8.13;;;;;;;;;;10246126;28;20068;-72
2022/02/12 14:57:18;;;;;;;16.80;8.07;;;;;;;;;;10243963;28;20084;-70
2022/02/12 15:02:20;;;;;;;12.20;9.57;;;;;;;;;;10245792;28;20072;-69
2022/02/12 15:07:19;;;;;;;22.63;15.68;;;;;;;;;;10241520;28;20502;-68
2022/02/12 15:12:19;;;;;;;34.83;21.80;;;;;;;;;;10238395;28;20080;-70
2022/02/12 15:17:21;;;;;;;18.60;12.52;;;;;;;;;;10241731;28;20069;-70
2022/02/12 15:22:20;;;;;;;14.13;9.85;;;;;;;;;;10240776;28;20357;-69
2022/02/12 15:27:19;;;;;;;16.90;10.95;;;;;;;;;;10241746;28;20072;-69
2022/02/12 15:32:18;;;;;;;27.58;18.67;;;;;;;;;;10241749;28;20186;-68
2022/02/12 15:37:16;;;;;;;30.52;18.33;;;;;;;;;;10243024;28;20073;-69
2022/02/12 15:42:20;;;;;;;27.83;17.73;;;;;;;;;;10244690;28;20068;-69
2022/02/12 15:47:20;;;;;;;20.17;14.25;;;;;;;;;;10242070;28;20175;-70
2022/02/12 15:52:19;;;;;;;15.30;11.10;;;;;;;;;;10242795;28;20426;-70
2022/02/12 15:57:17;;;;;;;22.27;14.25;;;;;;;;;;10240679;28;20069;-70
2022/02/12 16:02:17;;;;;;;19.70;13.63;;;;;;;;;;10239415;28;20069;-69
2022/02/12 16:07:15;;;;;;;17.38;13.73;;;;;;;;;;10244306;28;20466;-69
2022/02/12 16:12:30;;;;;;;18.63;11.98;;;;;;;;;;10242587;28;20077;-68
2022/02/12 16:17:30;;;;;;;18.15;12.45;;;;;;;;;;10241536;28;20495;-69
2022/02/12 16:22:28;;;;;;;19.17;13.23;;;;;;;;;;10245557;28;20072;-68
2022/02/12 16:27:30;;;;;;;14.27;10.63;;;;;;;;;;10252063;28;20092;-69
2022/02/12 16:32:29;;;;;;;18.23;13.15;;;;;;;;;;10246903;28;20073;-69
2022/02/12 16:37:28;;;;;;;25.52;14.82;;;;;;;;;;10245321;28;20065;-70
2022/02/12 16:42:26;;;;;;;19.40;13.05;;;;;;;;;;10249069;28;20072;-70
2022/02/12 16:47:24;;;;;;;19.52;13.13;;;;;;;;;;10242894;28;20080;-69
2022/02/12 16:52:25;;;;;;;30.70;22.17;;;;;;;;;;10246875;28;20080;-69
2022/02/12 16:57:23;;;;;;;32.63;20.10;;;;;;;;;;10240139;28;20065;-69
2022/02/12 17:02:21;;;;;;;28.65;18.13;;;;;;;;;;10249344;28;20076;-69
2022/02/12 17:07:20;;;;;;;13.30;9.77;;;;;;;;;;10251070;28;20085;-68
2022/02/12 17:12:20;;;;;;;19.00;14.20;;;;;;;;;;10254878;28;20073;-70
2022/02/12 17:17:18;;;;;;;17.65;12.43;;;;;;;;;;10258581;28;20487;-68
2022/02/12 17:22:17;;;;;;;18.55;12.55;;;;;;;;;;10249784;28;20073;-67
2022/02/12 17:27:15;;;;;;;23.77;14.85;;;;;;;;;;10244423;28;20057;-67
2022/02/12 17:32:15;;;;;;;16.58;11.32;;;;;;;;;;10251634;28;20077;-68
2022/02/12 17:37:14;;;;;;;29.98;19.55;;;;;;;;;;10247045;28;20565;-68
2022/02/12 17:42:12;;;;;;;48.70;32.20;;;;;;;;;;10247384;28;20077;-68
2022/02/12 17:47:10;;;;;;;32.08;19.73;;;;;;;;;;10243010;28;20419;-68
2022/02/12 17:52:10;;;;;;;33.95;22.95;;;;;;;;;;10247530;28;20065;-68
2022/02/12 17:57:09;;;;;;;23.17;15.05;;;;;;;;;;10260964;28;20080;-68
2022/02/12 18:02:08;;;;;;;43.13;26.80;;;;;;;;;;10258899;28;20068;-67
2022/02/12 18:07:09;;;;;;;42.15;26.52;;;;;;;;;;10265147;28;20069;-69
2022/02/12 18:12:10;;;;;;;16.77;12.18;;;;;;;;;;10262980;28;20077;-68
2022/02/12 18:17:09;;;;;;;25.75;17.33;;;;;;;;;;10263571;28;20486;-68
2022/02/12 18:22:07;;;;;;;13.75;11.43;;;;;;;;;;10255978;28;20495;-68
2022/02/12 18:27:07;;;;;;;17.60;11.23;;;;;;;;;;10249235;28;20065;-69
2022/02/12 18:32:07;;;;;;;18.92;12.13;;;;;;;;;;10258483;28;20088;-69
2022/02/12 18:37:06;;;;;;;17.83;13.55;;;;;;;;;;10252062;28;20080;-70
2022/02/12 18:42:04;;;;;;;35.97;21.48;;;;;;;;;;10250889;28;20065;-68
2022/02/12 18:47:05;;;;;;;19.73;13.15;;;;;;;;;;10251157;28;20115;-67
2022/02/12 18:52:10;;;;;;;23.67;12.60;;;;;;;;;;10246595;28;20087;-68
2022/02/12 18:57:13;;;;;;;28.73;17.52;;;;;;;;;;10246177;28;20064;-68
2022/02/12 19:02:17;;;;;;;13.20;9.27;;;;;;;;;;10246717;28;20073;-69
2022/02/12 19:07:18;;;;;;;10.65;7.80;;;;;;;;;;10247837;28;20077;-68
2022/02/12 19:12:17;;;;;;;19.98;13.10;;;;;;;;;;10243137;28;20131;-69
2022/02/12 19:17:17;;;;;;;24.45;14.48;;;;;;;;;;10249455;28;20183;-68
2022/02/12 19:22:17;;;;;;;35.80;21.70;;;;;;;;;;10259273;28;20068;-68
2022/02/12 19:27:18;;;;;;;12.38;9.13;;;;;;;;;;10245501;28;20077;-68
2022/02/12 19:32:16;;;;;;;10.93;8.75;;;;;;;;;;10247415;28;20069;-69
2022/02/12 19:37:18;;;;;;;11.40;7.80;;;;;;;;;;10245532;28;20068;-68
2022/02/12 19:42:20;;;;;;;9.80;7.43;;;;;;;;;;10243735;28;20068;-68
2022/02/12 19:47:19;;;;;;;14.43;8.63;;;;;;;;;;10238150;28;20083;-68
2022/02/12 19:52:17;;;;;;;16.65;9.50;;;;;;;;;;10247095;28;20076;-68
2022/02/12 19:57:15;;;;;;;19.60;10.82;;;;;;;;;;10248148;28;20061;-68
2022/02/12 20:02:15;;;;;;;12.10;8.52;;;;;;;;;;10246992;28;20203;-68
2022/02/12 20:07:13;;;;;;;14.57;10.07;;;;;;;;;;10251284;28;20557;-68
2022/02/12 20:12:12;;;;;;;12.95;7.00;;;;;;;;;;10247271;28;20068;-68
2022/02/12 20:17:15;;;;;;;15.40;8.52;;;;;;;;;;10245579;28;20072;-68
2022/02/12 20:22:18;;;;;;;13.05;8.55;;;;;;;;;;10251051;28;20411;-69
2022/02/12 20:27:20;;;;;;;16.08;10.05;;;;;;;;;;10246142;28;20064;-68
2022/02/12 20:32:19;;;;;;;16.60;9.65;;;;;;;;;;10247281;28;20109;-68
2022/02/12 20:37:19;;;;;;;23.60;13.38;;;;;;;;;;10250392;28;20529;-67
2022/02/12 20:42:17;;;;;;;23.42;13.55;;;;;;;;;;10259292;28;20502;-69
2022/02/12 20:47:15;;;;;;;21.73;12.43;;;;;;;;;;10254598;28;20077;-68
2022/02/12 20:52:14;;;;;;;30.80;15.88;;;;;;;;;;10252232;28;20080;-68
2022/02/12 20:57:13;;;;;;;34.05;17.90;;;;;;;;;;10249968;28;20069;-69
2022/02/12 21:02:12;;;;;;;59.25;27.70;;;;;;;;;;10254152;28;20061;-65
2022/02/12 21:07:10;;;;;;;20.80;9.70;;;;;;;;;;10257100;28;20084;-65
2022/02/12 21:12:09;;;;;;;34.72;20.10;;;;;;;;;;10254832;28;20100;-65
2022/02/12 21:17:09;;;;;;;35.13;18.65;;;;;;;;;;10249494;28;20080;-64
2022/02/12 21:22:07;;;;;;;31.30;19.15;;;;;;;;;;10251193;28;20056;-63
2022/02/12 21:27:06;;;;;;;21.83;14.80;;;;;;;;;;10253079;28;20068;-64
2022/02/12 21:32:06;;;;;;;25.48;15.10;;;;;;;;;;10250557;28;20072;-64
2022/02/12 21:37:07;;;;;;;30.05;17.52;;;;;;;;;;10244638;28;20525;-64
2022/02/12 21:42:05;;;;;;;70.70;43.30;;;;;;;;;;10246206;28;20447;-65
2022/02/12 21:47:04;;;;;;;18.33;11.98;;;;;;;;;;10244757;28;20082;-64
2022/02/12 21:52:03;;;;;;;12.20;9.02;;;;;;;;;;10245179;28;20084;-66
2022/02/12 21:57:03;;;;;;;31.88;17.20;;;;;;;;;;10245481;28;20080;-66
2022/02/12 22:02:03;;;;;;;49.05;26.35;;;;;;;;;;10246010;28;20475;-66
2022/02/12 22:07:01;;;;;;;45.50;22.75;;;;;;;;;;10243474;28;20089;-66
2022/02/12 22:12:00;;;;;;;19.45;11.60;;;;;;;;;;10246088;28;20494;-66
2022/02/12 22:16:59;;;;;;;41.95;25.10;;;;;;;;;;10245067;28;20065;-65
2022/02/12 22:21:58;;;;;;;30.90;16.38;;;;;;;;;;10246847;28;20466;-65
2022/02/12 22:26:56;;;;;;;37.95;21.73;;;;;;;;;;10250629;28;20069;-66
2022/02/12 22:31:54;;;;;;;33.30;19.55;;;;;;;;;;10250148;28;20071;-65
2022/02/12 22:36:54;;;;;;;28.20;18.50;;;;;;;;;;10249405;28;20037;-64
2022/02/12 22:41:52;;;;;;;17.42;12.23;;;;;;;;;;10251979;28;20091;-65
2022/02/12 22:46:51;;;;;;;18.40;12.95;;;;;;;;;;10250105;28;20077;-66
2022/02/12 22:51:49;;;;;;;19.70;11.35;;;;;;;;;;10247503;28;20065;-65
2022/02/12 22:56:49;;;;;;;18.25;11.00;;;;;;;;;;10244808;28;20084;-66
2022/02/12 23:01:47;;;;;;;16.17;10.43;;;;;;;;;;10244632;28;20072;-66
2022/02/12 23:06:46;;;;;;;15.43;10.15;;;;;;;;;;10242507;28;20076;-66
2022/02/12 23:11:45;;;;;;;12.63;8.90;;;;;;;;;;10243554;28;20464;-65
2022/02/12 23:16:45;;;;;;;37.28;18.95;;;;;;;;;;10243869;28;20080;-65
2022/02/12 23:21:43;;;;;;;19.58;12.45;;;;;;;;;;10243674;28;20475;-65
2022/02/12 23:26:41;;;;;;;32.58;17.23;;;;;;;;;;10243946;28;20494;-66
2022/02/12 23:31:40;;;;;;;17.27;11.88;;;;;;;;;;10245298;28;20696;-66
2022/02/12 23:36:40;;;;;;;27.80;16.85;;;;;;;;;;10248412;28;20404;-65
2022/02/12 23:41:38;;;;;;;16.05;9.82;;;;;;;;;;10243335;28;20065;-65
2022/02/12 23:46:36;;;;;;;13.40;9.32;;;;;;;;;;10246658;28;20072;-65
2022/02/12 23:51:35;;;;;;;11.52;9.25;;;;;;;;;;10249932;28;20079;-65
2022/02/12 23:56:36;;;;;;;16.80;10.57;;;;;;;;;;10241450;28;20068;-65
